sensor_id;sensor_type;location;lat;lon;timestamp;pressure;altitude;pressure_sealevel;temperature;humidity
26865;BME280;40618;51.166;10.322;2023-12-07T00:01:28;97503.09;;;0.11;96.04
26865;BME280;40618;51.166;10.322;2023-12-07T00:03:54;97503.06;;;0.09;96.36
26865;BME280;40618;51.166;10.322;2023-12-07T00:06:20;97506.50;;;0.10;96.43
26865;BME280;40618;51.166;10.322;2023-12-07T00:08:45;97514.13;;;0.10;95.86
26865;BME280;40618;51.166;10.322;2023-12-07T00:11:11;97508.16;;;0.08;96.58
26865;BME280;40618;51.166;10.322;2023-12-07T00:13:36;97508.13;;;0.05;95.91
26865;BME280;40618;51.166;10.322;2023-12-07T00:16:02;97515.75;;;0.05;95.94
26865;BME280;40618;51.166;10.322;2023-12-07T00:18:28;97516.59;;;0.05;96.04
26865;BME280;40618;51.166;10.322;2023-12-07T00:20:53;97515.78;;;0.06;96.07
26865;BME280;40618;51.166;10.322;2023-12-07T00:23:19;97522.56;;;0.07;96.03
26865;BME280;40618;51.166;10.322;2023-12-07T00:25:44;97524.28;;;0.08;96.56
26865;BME280;40618;51.166;10.322;2023-12-07T00:28:11;97520.88;;;0.09;95.87
26865;BME280;40618;51.166;10.322;2023-12-07T00:30:37;97521.75;;;0.10;96.17
26865;BME280;40618;51.166;10.322;2023-12-07T00:33:02;97523.50;;;0.12;95.98
26865;BME280;40618;51.166;10.322;2023-12-07T00:35:28;97526.06;;;0.14;95.92
26865;BME280;40618;51.166;10.322;2023-12-07T00:37:55;97524.34;;;0.14;96.30
26865;BME280;40618;51.166;10.322;2023-12-07T00:40:21;97525.19;;;0.13;96.04
26865;BME280;40618;51.166;10.322;2023-12-07T00:42:48;97532.81;;;0.13;96.29
26865;BME280;40618;51.166;10.322;2023-12-07T00:45:13;97529.44;;;0.14;96.52
26865;BME280;40618;51.166;10.322;2023-12-07T00:47:39;97532.88;;;0.16;95.99
26865;BME280;40618;51.166;10.322;2023-12-07T00:50:05;97522.66;;;0.15;96.13
26865;BME280;40618;51.166;10.322;2023-12-07T00:52:31;97535.38;;;0.15;96.00
26865;BME280;40618;51.166;10.322;2023-12-07T00:54:57;97532.00;;;0.16;95.82
26865;BME280;40618;51.166;10.322;2023-12-07T00:57:23;97542.19;;;0.16;96.25
26865;BME280;40618;51.166;10.322;2023-12-07T00:59:48;97539.66;;;0.17;96.27
26865;BME280;40618;51.166;10.322;2023-12-07T01:02:14;97544.81;;;0.21;96.35
26865;BME280;40618;51.166;10.322;2023-12-07T01:04:40;97546.47;;;0.19;96.01
26865;BME280;40618;51.166;10.322;2023-12-07T01:07:05;97544.75;;;0.17;96.52
26865;BME280;40618;51.166;10.322;2023-12-07T01:09:31;97560.94;;;0.21;95.98
26865;BME280;40618;51.166;10.322;2023-12-07T01:11:58;97562.66;;;0.22;96.00
26865;BME280;40618;51.166;10.322;2023-12-07T01:14:23;97571.97;;;0.22;96.50
26865;BME280;40618;51.166;10.322;2023-12-07T01:16:49;97576.22;;;0.21;96.71
26865;BME280;40618;51.166;10.322;2023-12-07T01:19:15;97573.69;;;0.21;96.64
26865;BME280;40618;51.166;10.322;2023-12-07T01:21:41;97573.63;;;0.18;96.22
26865;BME280;40618;51.166;10.322;2023-12-07T01:24:08;97566.00;;;0.18;96.02
26865;BME280;40618;51.166;10.322;2023-12-07T01:26:34;97566.81;;;0.15;95.97
26865;BME280;40618;51.166;10.322;2023-12-07T01:29:00;97566.84;;;0.17;96.25
26865;BME280;40618;51.166;10.322;2023-12-07T01:31:26;97578.75;;;0.18;95.80
26865;BME280;40618;51.166;10.322;2023-12-07T01:33:51;97577.06;;;0.20;96.26
26865;BME280;40618;51.166;10.322;2023-12-07T01:36:17;97578.75;;;0.21;95.75
26865;BME280;40618;51.166;10.322;2023-12-07T01:38:43;97584.69;;;0.20;95.95
26865;BME280;40618;51.166;10.322;2023-12-07T01:41:11;97589.78;;;0.22;96.19
26865;BME280;40618;51.166;10.322;2023-12-07T01:43:37;97591.53;;;0.23;96.59
26865;BME280;40618;51.166;10.322;2023-12-07T01:46:09;97591.53;;;0.23;95.71
26865;BME280;40618;51.166;10.322;2023-12-07T01:48:35;97595.78;;;0.24;96.21
26865;BME280;40618;51.166;10.322;2023-12-07T01:51:01;97596.63;;;0.24;96.03
26865;BME280;40618;51.166;10.322;2023-12-07T01:53:26;97597.44;;;0.23;96.02
26865;BME280;40618;51.166;10.322;2023-12-07T01:55:53;97590.69;;;0.24;96.22
26865;BME280;40618;51.166;10.322;2023-12-07T01:58:20;97601.72;;;0.24;95.72
26865;BME280;40618;51.166;10.322;2023-12-07T02:00:47;97599.16;;;0.23;96.05
26865;BME280;40618;51.166;10.322;2023-12-07T02:03:13;97600.88;;;0.24;96.25
26865;BME280;40618;51.166;10.322;2023-12-07T02:05:43;97594.91;;;0.23;95.73
26865;BME280;40618;51.166;10.322;2023-12-07T02:08:10;97603.41;;;0.22;95.90
26865;BME280;40618;51.166;10.322;2023-12-07T02:10:36;97611.91;;;0.24;95.64
26865;BME280;40618;51.166;10.322;2023-12-07T02:13:02;97607.63;;;0.22;96.01
26865;BME280;40618;51.166;10.322;2023-12-07T02:15:29;97600.84;;;0.21;96.22
26865;BME280;40618;51.166;10.322;2023-12-07T02:18:10;97611.03;;;0.21;96.22
26865;BME280;40618;51.166;10.322;2023-12-07T02:23:35;97612.69;;;0.19;95.54
26865;BME280;40618;51.166;10.322;2023-12-07T02:26:22;97609.31;;;0.20;95.81
26865;BME280;40618;51.166;10.322;2023-12-07T02:28:57;97611.88;;;0.21;95.51
26865;BME280;40618;51.166;10.322;2023-12-07T02:31:23;97604.19;;;0.18;96.05
26865;BME280;40618;51.166;10.322;2023-12-07T02:33:48;97610.94;;;0.16;95.70
26865;BME280;40618;51.166;10.322;2023-12-07T02:36:18;97605.84;;;0.14;96.08
26865;BME280;40618;51.166;10.322;2023-12-07T02:38:46;97604.13;;;0.15;95.83
26865;BME280;40618;51.166;10.322;2023-12-07T02:41:13;97597.34;;;0.14;95.97
26865;BME280;40618;51.166;10.322;2023-12-07T02:43:39;97608.34;;;0.11;96.28
26865;BME280;40618;51.166;10.322;2023-12-07T02:46:05;97610.91;;;0.11;96.19
26865;BME280;40618;51.166;10.322;2023-12-07T02:48:31;97613.44;;;0.11;95.45
26865;BME280;40618;51.166;10.322;2023-12-07T02:50:57;97619.38;;;0.12;96.31
26865;BME280;40618;51.166;10.322;2023-12-07T02:53:22;97625.31;;;0.11;96.10
26865;BME280;40618;51.166;10.322;2023-12-07T02:55:48;97630.38;;;0.11;96.00
26865;BME280;40618;51.166;10.322;2023-12-07T02:58:13;97627.03;;;0.12;96.10
26865;BME280;40618;51.166;10.322;2023-12-07T03:00:39;97631.31;;;0.14;96.36
26865;BME280;40618;51.166;10.322;2023-12-07T03:03:04;97633.88;;;0.16;95.52
26865;BME280;40618;51.166;10.322;2023-12-07T03:05:30;97629.66;;;0.16;95.91
26865;BME280;40618;51.166;10.322;2023-12-07T03:07:56;97630.50;;;0.17;96.18
26865;BME280;40618;51.166;10.322;2023-12-07T03:10:21;97644.97;;;0.21;95.91
26865;BME280;40618;51.166;10.322;2023-12-07T03:12:47;97639.06;;;0.22;95.84
26865;BME280;40618;51.166;10.322;2023-12-07T03:15:12;97642.44;;;0.21;96.21
26865;BME280;40618;51.166;10.322;2023-12-07T03:17:38;97635.66;;;0.23;96.33
26865;BME280;40618;51.166;10.322;2023-12-07T03:20:05;97640.72;;;0.22;96.19
26865;BME280;40618;51.166;10.322;2023-12-07T03:22:31;97644.97;;;0.21;96.33
26865;BME280;40618;51.166;10.322;2023-12-07T03:24:56;97642.44;;;0.21;95.76
26865;BME280;40618;51.166;10.322;2023-12-07T03:27:22;97640.69;;;0.19;96.17
26865;BME280;40618;51.166;10.322;2023-12-07T03:29:47;97640.69;;;0.17;96.11
26865;BME280;40618;51.166;10.322;2023-12-07T03:32:13;97648.31;;;0.17;96.13
26865;BME280;40618;51.166;10.322;2023-12-07T03:34:39;97649.19;;;0.19;96.53
26865;BME280;40618;51.166;10.322;2023-12-07T03:37:04;97652.59;;;0.20;96.31
26865;BME280;40618;51.166;10.322;2023-12-07T03:39:30;97650.88;;;0.19;95.54
26865;BME280;40618;51.166;10.322;2023-12-07T03:41:57;97650.03;;;0.18;96.21
26865;BME280;40618;51.166;10.322;2023-12-07T03:44:23;97644.06;;;0.17;95.90
26865;BME280;40618;51.166;10.322;2023-12-07T03:46:48;97638.97;;;0.16;95.90
26865;BME280;40618;51.166;10.322;2023-12-07T03:49:14;97641.50;;;0.16;95.92
26865;BME280;40618;51.166;10.322;2023-12-07T03:51:40;97643.19;;;0.14;95.94
26865;BME280;40618;51.166;10.322;2023-12-07T03:54:06;97650.84;;;0.15;95.87
26865;BME280;40618;51.166;10.322;2023-12-07T03:56:32;97654.25;;;0.16;95.76
26865;BME280;40618;51.166;10.322;2023-12-07T03:58:58;97660.22;;;0.16;95.63
26865;BME280;40618;51.166;10.322;2023-12-07T04:01:25;97665.31;;;0.16;95.90
26865;BME280;40618;51.166;10.322;2023-12-07T04:03:56;97652.56;;;0.16;95.55
26865;BME280;40618;51.166;10.322;2023-12-07T04:06:23;97658.50;;;0.17;96.12
26865;BME280;40618;51.166;10.322;2023-12-07T04:08:49;97655.13;;;0.18;95.57
26865;BME280;40618;51.166;10.322;2023-12-07T04:11:16;97657.69;;;0.18;95.70
26865;BME280;40618;51.166;10.322;2023-12-07T04:13:42;97660.25;;;0.21;96.11
26865;BME280;40618;51.166;10.322;2023-12-07T04:16:09;97664.50;;;0.21;96.35
26865;BME280;40618;51.166;10.322;2023-12-07T04:18:35;97663.63;;;0.19;96.18
26865;BME280;40618;51.166;10.322;2023-12-07T04:21:01;97669.53;;;0.17;95.69
26865;BME280;40618;51.166;10.322;2023-12-07T04:23:26;97665.31;;;0.16;95.91
26865;BME280;40618;51.166;10.322;2023-12-07T04:25:52;97666.97;;;0.16;96.17
26865;BME280;40618;51.166;10.322;2023-12-07T04:28:18;97670.41;;;0.16;96.25
26865;BME280;40618;51.166;10.322;2023-12-07T04:30:43;97667.78;;;0.13;95.70
26865;BME280;40618;51.166;10.322;2023-12-07T04:33:09;97672.91;;;0.15;96.46
26865;BME280;40618;51.166;10.322;2023-12-07T04:35:35;97682.22;;;0.13;95.61
26865;BME280;40618;51.166;10.322;2023-12-07T04:38:01;97680.50;;;0.12;96.12
26865;BME280;40618;51.166;10.322;2023-12-07T04:40:27;97677.09;;;0.11;96.33
26865;BME280;40618;51.166;10.322;2023-12-07T04:42:53;97667.75;;;0.12;95.90
26865;BME280;40618;51.166;10.322;2023-12-07T04:45:19;97673.69;;;0.11;95.95
26865;BME280;40618;51.166;10.322;2023-12-07T04:47:45;97677.97;;;0.13;96.04
26865;BME280;40618;51.166;10.322;2023-12-07T04:50:11;97675.41;;;0.12;96.47
26865;BME280;40618;51.166;10.322;2023-12-07T04:52:37;97678.78;;;0.11;96.23
26865;BME280;40618;51.166;10.322;2023-12-07T04:55:03;97682.19;;;0.11;95.91
26865;BME280;40618;51.166;10.322;2023-12-07T04:57:32;97683.91;;;0.12;96.38
26865;BME280;40618;51.166;10.322;2023-12-07T05:00:01;97688.16;;;0.13;95.71
26865;BME280;40618;51.166;10.322;2023-12-07T05:02:31;97683.06;;;0.15;95.93
26865;BME280;40618;51.166;10.322;2023-12-07T05:04:57;97680.53;;;0.15;95.90
26865;BME280;40618;51.166;10.322;2023-12-07T05:07:23;97685.63;;;0.15;96.44
26865;BME280;40618;51.166;10.322;2023-12-07T05:09:49;97683.94;;;0.14;95.70
26865;BME280;40618;51.166;10.322;2023-12-07T05:12:18;97687.34;;;0.16;95.98
26865;BME280;40618;51.166;10.322;2023-12-07T05:14:44;97673.78;;;0.15;96.25
26865;BME280;40618;51.166;10.322;2023-12-07T05:17:09;97685.63;;;0.15;96.20
26865;BME280;40618;51.166;10.322;2023-12-07T05:19:35;97683.06;;;0.15;95.80
26865;BME280;40618;51.166;10.322;2023-12-07T05:22:01;97686.47;;;0.14;96.00
26865;BME280;40618;51.166;10.322;2023-12-07T05:24:27;97692.41;;;0.14;95.94
26865;BME280;40618;51.166;10.322;2023-12-07T05:26:53;97692.41;;;0.14;95.89
26865;BME280;40618;51.166;10.322;2023-12-07T05:29:19;97705.97;;;0.12;95.75
26865;BME280;40618;51.166;10.322;2023-12-07T05:31:45;97697.44;;;0.10;96.35
26865;BME280;40618;51.166;10.322;2023-12-07T05:34:13;97696.56;;;0.09;95.90
26865;BME280;40618;51.166;10.322;2023-12-07T05:36:39;97694.91;;;0.10;96.62
26865;BME280;40618;51.166;10.322;2023-12-07T05:39:04;97689.03;;;0.14;95.77
26865;BME280;40618;51.166;10.322;2023-12-07T05:41:32;97694.13;;;0.14;96.62
26865;BME280;40618;51.166;10.322;2023-12-07T05:43:58;97688.22;;;0.16;96.03
26865;BME280;40618;51.166;10.322;2023-12-07T05:46:23;97689.06;;;0.17;96.45
26865;BME280;40618;51.166;10.322;2023-12-07T05:48:49;97683.13;;;0.16;95.93
26865;BME280;40618;51.166;10.322;2023-12-07T05:51:17;97688.22;;;0.16;96.04
26865;BME280;40618;51.166;10.322;2023-12-07T05:53:45;97680.59;;;0.16;96.18
26865;BME280;40618;51.166;10.322;2023-12-07T05:56:11;97689.91;;;0.17;95.90
26865;BME280;40618;51.166;10.322;2023-12-07T05:58:37;97687.38;;;0.19;95.75
26865;BME280;40618;51.166;10.322;2023-12-07T06:01:03;97689.09;;;0.20;96.16
26865;BME280;40618;51.166;10.322;2023-12-07T06:03:30;97693.38;;;0.21;96.64
26865;BME280;40618;51.166;10.322;2023-12-07T06:05:56;97685.72;;;0.21;96.28
26865;BME280;40618;51.166;10.322;2023-12-07T06:08:24;97691.66;;;0.22;95.94
26865;BME280;40618;51.166;10.322;2023-12-07T06:10:50;97695.91;;;0.20;96.03
26865;BME280;40618;51.166;10.322;2023-12-07T06:13:16;97702.72;;;0.21;96.10
26865;BME280;40618;51.166;10.322;2023-12-07T06:15:41;97697.63;;;0.21;96.17
26865;BME280;40618;51.166;10.322;2023-12-07T06:18:07;97696.75;;;0.22;96.36
26865;BME280;40618;51.166;10.322;2023-12-07T06:20:33;97701.84;;;0.22;96.00
26865;BME280;40618;51.166;10.322;2023-12-07T06:23:00;97700.19;;;0.22;96.35
26865;BME280;40618;51.166;10.322;2023-12-07T06:25:27;97705.28;;;0.22;95.67
26865;BME280;40618;51.166;10.322;2023-12-07T06:27:52;97706.94;;;0.20;96.31
26865;BME280;40618;51.166;10.322;2023-12-07T06:30:18;97706.94;;;0.20;95.89
26865;BME280;40618;51.166;10.322;2023-12-07T06:32:44;97730.69;;;0.19;95.80
26865;BME280;40618;51.166;10.322;2023-12-07T06:35:13;97727.25;;;0.17;96.34
26865;BME280;40618;51.166;10.322;2023-12-07T06:37:38;97723.81;;;0.15;96.30
26865;BME280;40618;51.166;10.322;2023-12-07T06:40:09;97728.91;;;0.15;96.06
26865;BME280;40618;51.166;10.322;2023-12-07T06:42:35;97733.97;;;0.12;95.79
26865;BME280;40618;51.166;10.322;2023-12-07T06:45:01;97739.94;;;0.12;96.32
26865;BME280;40618;51.166;10.322;2023-12-07T06:47:28;97744.19;;;0.15;96.57
26865;BME280;40618;51.166;10.322;2023-12-07T06:49:54;97745.91;;;0.16;96.56
26865;BME280;40618;51.166;10.322;2023-12-07T06:52:21;97735.72;;;0.16;96.64
26865;BME280;40618;51.166;10.322;2023-12-07T06:54:47;97745.06;;;0.15;95.70
26865;BME280;40618;51.166;10.322;2023-12-07T06:57:12;97742.50;;;0.14;95.81
26865;BME280;40618;51.166;10.322;2023-12-07T06:59:38;97742.50;;;0.14;96.43
26865;BME280;40618;51.166;10.322;2023-12-07T07:02:06;97741.66;;;0.15;95.94
26865;BME280;40618;51.166;10.322;2023-12-07T07:04:31;97743.38;;;0.16;96.68
26865;BME280;40618;51.166;10.322;2023-12-07T07:06:57;97739.16;;;0.18;95.77
26865;BME280;40618;51.166;10.322;2023-12-07T07:09:23;97751.91;;;0.18;95.97
26865;BME280;40618;51.166;10.322;2023-12-07T07:11:48;97752.72;;;0.17;96.00
26865;BME280;40618;51.166;10.322;2023-12-07T07:14:14;97754.44;;;0.16;96.08
26865;BME280;40618;51.166;10.322;2023-12-07T07:16:41;97768.84;;;0.17;96.26
26865;BME280;40618;51.166;10.322;2023-12-07T07:19:06;97759.53;;;0.18;96.36
26865;BME280;40618;51.166;10.322;2023-12-07T07:21:32;97764.63;;;0.16;96.43
26865;BME280;40618;51.166;10.322;2023-12-07T07:23:57;97772.25;;;0.16;96.48
26865;BME280;40618;51.166;10.322;2023-12-07T07:26:23;97762.09;;;0.18;96.49
26865;BME280;40618;51.166;10.322;2023-12-07T07:28:51;97761.19;;;0.16;96.46
26865;BME280;40618;51.166;10.322;2023-12-07T07:31:17;97764.66;;;0.20;96.37
26865;BME280;40618;51.166;10.322;2023-12-07T07:33:43;97760.38;;;0.19;95.94
26865;BME280;40618;51.166;10.322;2023-12-07T07:36:09;97761.28;;;0.21;95.97
26865;BME280;40618;51.166;10.322;2023-12-07T07:38:36;97763.84;;;0.21;95.92
26865;BME280;40618;51.166;10.322;2023-12-07T07:41:03;97759.59;;;0.21;95.91
26865;BME280;40618;51.166;10.322;2023-12-07T07:43:29;97767.25;;;0.23;96.78
26865;BME280;40618;51.166;10.322;2023-12-07T07:45:55;97767.25;;;0.23;95.95
26865;BME280;40618;51.166;10.322;2023-12-07T07:48:21;97774.91;;;0.24;96.20
26865;BME280;40618;51.166;10.322;2023-12-07T07:50:47;97780.88;;;0.25;96.44
26865;BME280;40618;51.166;10.322;2023-12-07T07:53:12;97775.78;;;0.25;95.77
26865;BME280;40618;51.166;10.322;2023-12-07T07:55:38;97780.81;;;0.23;96.68
26865;BME280;40618;51.166;10.322;2023-12-07T07:58:04;97776.59;;;0.22;96.34
26865;BME280;40618;51.166;10.322;2023-12-07T08:00:29;97775.72;;;0.22;95.83
26865;BME280;40618;51.166;10.322;2023-12-07T08:02:57;97773.09;;;0.17;95.93
26865;BME280;40618;51.166;10.322;2023-12-07T08:05:23;97773.94;;;0.17;96.54
26865;BME280;40618;51.166;10.322;2023-12-07T08:07:49;97775.66;;;0.17;96.23
26865;BME280;40618;51.166;10.322;2023-12-07T08:10:14;97779.13;;;0.21;96.72
26865;BME280;40618;51.166;10.322;2023-12-07T08:12:41;97784.16;;;0.19;96.35
26865;BME280;40618;51.166;10.322;2023-12-07T08:15:07;97780.75;;;0.19;96.18
26865;BME280;40618;51.166;10.322;2023-12-07T08:17:37;97782.47;;;0.18;96.64
26865;BME280;40618;51.166;10.322;2023-12-07T08:20:09;97784.22;;;0.22;95.85
26865;BME280;40618;51.166;10.322;2023-12-07T08:22:36;97785.06;;;0.23;96.40
26865;BME280;40618;51.166;10.322;2023-12-07T08:25:03;97789.31;;;0.22;95.92
26865;BME280;40618;51.166;10.322;2023-12-07T08:27:32;97789.31;;;0.22;96.50
26865;BME280;40618;51.166;10.322;2023-12-07T08:29:58;97791.00;;;0.23;96.42
26865;BME280;40618;51.166;10.322;2023-12-07T08:32:24;97792.72;;;0.23;96.62
26865;BME280;40618;51.166;10.322;2023-12-07T08:34:51;97796.16;;;0.25;96.00
26865;BME280;40618;51.166;10.322;2023-12-07T08:37:18;97789.38;;;0.25;96.79
26865;BME280;40618;51.166;10.322;2023-12-07T08:39:44;97793.63;;;0.26;96.84
26865;BME280;40618;51.166;10.322;2023-12-07T08:42:10;97782.56;;;0.26;96.75
26865;BME280;40618;51.166;10.322;2023-12-07T08:44:35;97786.81;;;0.25;95.99
26865;BME280;40618;51.166;10.322;2023-12-07T08:47:01;97788.53;;;0.26;96.61
26865;BME280;40618;51.166;10.322;2023-12-07T08:49:27;97793.63;;;0.25;96.52
26865;BME280;40618;51.166;10.322;2023-12-07T08:51:53;97786.78;;;0.22;96.02
26865;BME280;40618;51.166;10.322;2023-12-07T08:54:19;97791.00;;;0.22;96.27
26865;BME280;40618;51.166;10.322;2023-12-07T08:56:45;97787.63;;;0.23;96.02
26865;BME280;40618;51.166;10.322;2023-12-07T08:59:11;97791.88;;;0.22;96.01
26865;BME280;40618;51.166;10.322;2023-12-07T09:01:36;97796.16;;;0.25;96.65
26865;BME280;40618;51.166;10.322;2023-12-07T09:04:02;97791.91;;;0.25;96.47
26865;BME280;40618;51.166;10.322;2023-12-07T09:06:28;97802.13;;;0.27;96.62
26865;BME280;40618;51.166;10.322;2023-12-07T09:08:54;97797.00;;;0.25;96.52
26865;BME280;40618;51.166;10.322;2023-12-07T09:11:20;97798.72;;;0.26;96.20
26865;BME280;40618;51.166;10.322;2023-12-07T09:13:46;97802.97;;;0.27;96.81
26865;BME280;40618;51.166;10.322;2023-12-07T09:16:12;97801.28;;;0.26;96.52
26865;BME280;40618;51.166;10.322;2023-12-07T09:18:38;97805.47;;;0.24;95.89
26865;BME280;40618;51.166;10.322;2023-12-07T09:21:04;97800.31;;;0.20;96.50
26865;BME280;40618;51.166;10.322;2023-12-07T09:23:31;97806.22;;;0.19;95.89
26865;BME280;40618;51.166;10.322;2023-12-07T09:25:57;97804.59;;;0.21;96.34
26865;BME280;40618;51.166;10.322;2023-12-07T09:28:22;97797.78;;;0.21;96.53
26865;BME280;40618;51.166;10.322;2023-12-07T09:30:49;97801.13;;;0.19;96.12
26865;BME280;40618;51.166;10.322;2023-12-07T09:33:14;97799.41;;;0.17;96.78
26865;BME280;40618;51.166;10.322;2023-12-07T09:35:40;97795.22;;;0.20;96.38
26865;BME280;40618;51.166;10.322;2023-12-07T09:38:06;97798.59;;;0.19;96.71
26865;BME280;40618;51.166;10.322;2023-12-07T09:40:32;97803.69;;;0.19;96.40
26865;BME280;40618;51.166;10.322;2023-12-07T09:42:58;97800.34;;;0.21;96.35
26865;BME280;40618;51.166;10.322;2023-12-07T09:45:24;97800.34;;;0.21;96.29
26865;BME280;40618;51.166;10.322;2023-12-07T09:47:51;97798.63;;;0.20;96.58
26865;BME280;40618;51.166;10.322;2023-12-07T09:50:19;97803.72;;;0.20;96.65
26865;BME280;40618;51.166;10.322;2023-12-07T09:52:57;97803.66;;;0.17;95.85
26865;BME280;40618;51.166;10.322;2023-12-07T09:55:24;97806.25;;;0.20;96.28
26865;BME280;40618;51.166;10.322;2023-12-07T09:57:50;97799.50;;;0.22;96.18
26865;BME280;40618;51.166;10.322;2023-12-07T10:00:16;97801.19;;;0.22;96.13
26865;BME280;40618;51.166;10.322;2023-12-07T10:02:45;97794.44;;;0.24;96.21
26865;BME280;40618;51.166;10.322;2023-12-07T10:05:13;97797.00;;;0.25;96.70
26865;BME280;40618;51.166;10.322;2023-12-07T10:07:42;97783.44;;;0.26;96.14
26865;BME280;40618;51.166;10.322;2023-12-07T10:10:15;97791.16;;;0.31;96.19
26865;BME280;40618;51.166;10.322;2023-12-07T10:13:01;97792.03;;;0.33;96.46
26865;BME280;40618;51.166;10.322;2023-12-07T10:15:27;97789.50;;;0.33;96.29
26865;BME280;40618;51.166;10.322;2023-12-07T10:17:58;97791.25;;;0.36;96.89
26865;BME280;40618;51.166;10.322;2023-12-07T10:20:26;97785.28;;;0.37;96.25
26865;BME280;40618;51.166;10.322;2023-12-07T10:23:05;97792.06;;;0.35;96.43
26865;BME280;40618;51.166;10.322;2023-12-07T10:25:42;97784.44;;;0.35;96.86
26865;BME280;40618;51.166;10.322;2023-12-07T10:28:08;97775.97;;;0.36;96.04
26865;BME280;40618;51.166;10.322;2023-12-07T10:30:37;97782.75;;;0.38;96.82
26865;BME280;40618;51.166;10.322;2023-12-07T10:33:05;97771.75;;;0.41;96.24
26865;BME280;40618;51.166;10.322;2023-12-07T10:35:32;97781.13;;;0.42;96.56
26865;BME280;40618;51.166;10.322;2023-12-07T10:37:58;97776.03;;;0.40;96.56
26865;BME280;40618;51.166;10.322;2023-12-07T10:40:23;97787.03;;;0.39;96.28
26865;BME280;40618;51.166;10.322;2023-12-07T10:42:56;97787.84;;;0.38;96.93
26865;BME280;40618;51.166;10.322;2023-12-07T10:45:29;97785.28;;;0.37;95.95
26865;BME280;40618;51.166;10.322;2023-12-07T10:48:03;97790.38;;;0.37;96.22
26865;BME280;40618;51.166;10.322;2023-12-07T10:50:35;97786.16;;;0.37;96.04
26865;BME280;40618;51.166;10.322;2023-12-07T10:53:27;97785.28;;;0.35;95.84
26865;BME280;40618;51.166;10.322;2023-12-07T10:56:01;97778.50;;;0.36;96.75
26865;BME280;40618;51.166;10.322;2023-12-07T10:58:27;97772.56;;;0.37;96.77
26865;BME280;40618;51.166;10.322;2023-12-07T11:00:53;97774.28;;;0.39;96.72
26865;BME280;40618;51.166;10.322;2023-12-07T11:03:20;97770.94;;;0.42;96.27
26865;BME280;40618;51.166;10.322;2023-12-07T11:05:47;97766.75;;;0.44;96.37
26865;BME280;40618;51.166;10.322;2023-12-07T11:08:34;97766.75;;;0.45;96.40
26865;BME280;40618;51.166;10.322;2023-12-07T11:11:20;97766.78;;;0.48;96.17
26865;BME280;40618;51.166;10.322;2023-12-07T11:13:56;97762.56;;;0.50;96.57
26865;BME280;40618;51.166;10.322;2023-12-07T11:16:38;97755.81;;;0.53;97.01
26865;BME280;40618;51.166;10.322;2023-12-07T11:21:58;97750.78;;;0.57;96.83
26865;BME280;40618;51.166;10.322;2023-12-07T11:24:25;97746.56;;;0.58;96.48
26865;BME280;40618;51.166;10.322;2023-12-07T11:26:54;97735.56;;;0.60;96.55
26865;BME280;40618;51.166;10.322;2023-12-07T11:29:21;97729.59;;;0.63;96.65
26865;BME280;40618;51.166;10.322;2023-12-07T11:31:50;97724.59;;;0.67;96.42
26865;BME280;40618;51.166;10.322;2023-12-07T11:34:39;97722.97;;;0.73;97.10
26865;BME280;40618;51.166;10.322;2023-12-07T11:37:06;97725.53;;;0.73;96.38
26865;BME280;40618;51.166;10.322;2023-12-07T11:39:40;97729.75;;;0.74;96.34
26865;BME280;40618;51.166;10.322;2023-12-07T11:42:15;97721.28;;;0.73;96.66
26865;BME280;40618;51.166;10.322;2023-12-07T11:44:42;97727.19;;;0.71;96.95
26865;BME280;40618;51.166;10.322;2023-12-07T11:47:16;97723.00;;;0.74;96.66
26865;BME280;40618;51.166;10.322;2023-12-07T11:49:44;97721.31;;;0.78;96.77
26865;BME280;40618;51.166;10.322;2023-12-07T11:52:14;97719.66;;;0.80;97.04
26865;BME280;40618;51.166;10.322;2023-12-07T11:54:50;97712.88;;;0.82;96.25
26865;BME280;40618;51.166;10.322;2023-12-07T11:57:16;97710.31;;;0.82;96.76
26865;BME280;40618;51.166;10.322;2023-12-07T11:59:44;97709.50;;;0.83;96.74
26865;BME280;40618;51.166;10.322;2023-12-07T12:02:11;97702.63;;;0.79;96.12
26865;BME280;40618;51.166;10.322;2023-12-07T12:04:37;97704.34;;;0.78;96.39
26865;BME280;40618;51.166;10.322;2023-12-07T12:07:03;97706.94;;;0.81;96.15
26865;BME280;40618;51.166;10.322;2023-12-07T12:09:29;97712.06;;;0.84;96.42
26865;BME280;40618;51.166;10.322;2023-12-07T12:11:56;97712.97;;;0.88;96.10
26865;BME280;40618;51.166;10.322;2023-12-07T12:14:25;97708.78;;;0.93;96.76
26865;BME280;40618;51.166;10.322;2023-12-07T12:16:52;97704.56;;;0.97;96.85
26865;BME280;40618;51.166;10.322;2023-12-07T12:19:18;97707.09;;;0.97;96.96
26865;BME280;40618;51.166;10.322;2023-12-07T12:21:44;97706.25;;;0.95;96.16
26865;BME280;40618;51.166;10.322;2023-12-07T12:24:11;97701.13;;;0.93;96.19
26865;BME280;40618;51.166;10.322;2023-12-07T12:26:39;97701.94;;;0.89;96.65
26865;BME280;40618;51.166;10.322;2023-12-07T12:29:07;97695.94;;;0.87;96.58
26865;BME280;40618;51.166;10.322;2023-12-07T12:31:37;97690.00;;;0.88;96.20
26865;BME280;40618;51.166;10.322;2023-12-07T12:34:06;97693.47;;;0.92;96.29
26865;BME280;40618;51.166;10.322;2023-12-07T12:36:34;97686.66;;;0.92;96.36
26865;BME280;40618;51.166;10.322;2023-12-07T12:39:00;97679.84;;;0.90;95.96
26865;BME280;40618;51.166;10.322;2023-12-07T12:41:27;97678.19;;;0.92;96.90
26865;BME280;40618;51.166;10.322;2023-12-07T12:43:56;97680.75;;;0.93;96.54
26865;BME280;40618;51.166;10.322;2023-12-07T12:46:22;97680.75;;;0.95;96.17
26865;BME280;40618;51.166;10.322;2023-12-07T12:48:59;97685.03;;;0.96;96.50
26865;BME280;40618;51.166;10.322;2023-12-07T12:51:28;97686.72;;;0.97;96.26
26865;BME280;40618;51.166;10.322;2023-12-07T12:53:58;97680.78;;;0.98;96.31
26865;BME280;40618;51.166;10.322;2023-12-07T12:56:26;97682.53;;;1.02;96.04
26865;BME280;40618;51.166;10.322;2023-12-07T12:58:53;97680.00;;;1.04;96.63
26865;BME280;40618;51.166;10.322;2023-12-07T13:01:22;97685.09;;;1.05;96.35
26865;BME280;40618;51.166;10.322;2023-12-07T13:03:49;97688.53;;;1.07;95.84
26865;BME280;40618;51.166;10.322;2023-12-07T13:06:15;97688.53;;;1.07;95.98